sensor_id;sensor_type;location;lat;lon;timestamp;temperature;humidity
17918;DHT22;9084;50.956;3.106;2022-09-09T00:09:27;15.90;99.90
17918;DHT22;9084;50.956;3.106;2022-09-09T00:12:10;15.90;99.90
17918;DHT22;9084;50.956;3.106;2022-09-09T00:14:59;15.90;99.90
17918;DHT22;9084;50.956;3.106;2022-09-09T00:23:17;15.90;99.90
17918;DHT22;9084;50.956;3.106;2022-09-09T00:28:25;16.00;99.90
17918;DHT22;9084;50.956;3.106;2022-09-09T00:30:56;15.90;99.90
17918;DHT22;9084;50.956;3.106;2022-09-09T00:33:29;15.90;99.90
17918;DHT22;9084;50.956;3.106;2022-09-09T00:35:57;15.90;99.90
17918;DHT22;9084;50.956;3.106;2022-09-09T00:38:37;15.90;99.90
17918;DHT22;9084;50.956;3.106;2022-09-09T00:44:06;15.90;99.90
17918;DHT22;9084;50.956;3.106;2022-09-09T00:49:52;15.90;99.90
17918;DHT22;9084;50.956;3.106;2022-09-09T00:55:04;15.80;99.90
17918;DHT22;9084;50.956;3.106;2022-09-09T00:57:32;15.80;99.90
17918;DHT22;9084;50.956;3.106;2022-09-09T01:00:28;15.80;99.90
17918;DHT22;9084;50.956;3.106;2022-09-09T01:11:33;15.70;99.90
17918;DHT22;9084;50.956;3.106;2022-09-09T01:16:45;15.60;99.90
17918;DHT22;9084;50.956;3.106;2022-09-09T01:19:20;15.60;99.90
17918;DHT22;9084;50.956;3.106;2022-09-09T01:21:50;15.60;99.90
17918;DHT22;9084;50.956;3.106;2022-09-09T01:24:34;15.60;99.90
17918;DHT22;9084;50.956;3.106;2022-09-09T01:27:06;15.60;99.90
17918;DHT22;9084;50.956;3.106;2022-09-09T01:29:33;15.60;99.90
17918;DHT22;9084;50.956;3.106;2022-09-09T01:32:01;15.60;99.90
17918;DHT22;9084;50.956;3.106;2022-09-09T01:34:33;15.60;99.90
17918;DHT22;9084;50.956;3.106;2022-09-09T01:37:04;15.60;99.90
17918;DHT22;9084;50.956;3.106;2022-09-09T01:39:35;15.60;99.90
17918;DHT22;9084;50.956;3.106;2022-09-09T01:42:06;15.60;99.90
17918;DHT22;9084;50.956;3.106;2022-09-09T01:44:36;15.60;99.90
17918;DHT22;9084;50.956;3.106;2022-09-09T01:47:08;15.60;99.90
17918;DHT22;9084;50.956;3.106;2022-09-09T01:49:36;15.60;99.90
17918;DHT22;9084;50.956;3.106;2022-09-09T01:52:02;15.60;99.90
17918;DHT22;9084;50.956;3.106;2022-09-09T01:54:30;15.60;99.90
17918;DHT22;9084;50.956;3.106;2022-09-09T01:57:22;15.70;99.90
17918;DHT22;9084;50.956;3.106;2022-09-09T02:00:22;15.70;99.90
17918;DHT22;9084;50.956;3.106;2022-09-09T02:03:21;15.70;99.90
17918;DHT22;9084;50.956;3.106;2022-09-09T02:06:27;15.80;99.90
17918;DHT22;9084;50.956;3.106;2022-09-09T02:08:59;15.80;99.90
17918;DHT22;9084;50.956;3.106;2022-09-09T02:11:29;15.80;99.90
17918;DHT22;9084;50.956;3.106;2022-09-09T02:14:17;15.80;99.90
17918;DHT22;9084;50.956;3.106;2022-09-09T02:16:56;15.80;99.90
17918;DHT22;9084;50.956;3.106;2022-09-09T02:19:34;15.80;99.90
17918;DHT22;9084;50.956;3.106;2022-09-09T02:22:02;15.80;99.90
17918;DHT22;9084;50.956;3.106;2022-09-09T02:24:34;15.70;99.90
17918;DHT22;9084;50.956;3.106;2022-09-09T02:27:04;15.80;99.90
17918;DHT22;9084;50.956;3.106;2022-09-09T02:29:40;15.70;99.90
17918;DHT22;9084;50.956;3.106;2022-09-09T02:32:12;15.70;99.90
17918;DHT22;9084;50.956;3.106;2022-09-09T02:34:43;15.70;99.90
17918;DHT22;9084;50.956;3.106;2022-09-09T02:37:11;15.70;99.90
17918;DHT22;9084;50.956;3.106;2022-09-09T02:39:38;15.70;99.90
17918;DHT22;9084;50.956;3.106;2022-09-09T02:42:04;15.70;99.90
17918;DHT22;9084;50.956;3.106;2022-09-09T02:44:32;15.70;99.90
17918;DHT22;9084;50.956;3.106;2022-09-09T02:49:38;15.70;99.90
17918;DHT22;9084;50.956;3.106;2022-09-09T02:52:14;15.70;99.90
17918;DHT22;9084;50.956;3.106;2022-09-09T02:54:41;15.70;99.90
17918;DHT22;9084;50.956;3.106;2022-09-09T02:57:25;15.70;99.90
17918;DHT22;9084;50.956;3.106;2022-09-09T02:59:53;15.70;99.90
17918;DHT22;9084;50.956;3.106;2022-09-09T03:02:22;15.70;99.90
17918;DHT22;9084;50.956;3.106;2022-09-09T03:04:53;15.70;99.90
17918;DHT22;9084;50.956;3.106;2022-09-09T03:07:21;15.80;99.90
17918;DHT22;9084;50.956;3.106;2022-09-09T03:09:47;15.80;99.90
17918;DHT22;9084;50.956;3.106;2022-09-09T03:12:13;15.90;99.90
17918;DHT22;9084;50.956;3.106;2022-09-09T03:14:42;15.90;99.90
17918;DHT22;9084;50.956;3.106;2022-09-09T03:17:08;15.90;99.90
17918;DHT22;9084;50.956;3.106;2022-09-09T03:19:37;15.90;99.90
17918;DHT22;9084;50.956;3.106;2022-09-09T03:22:03;15.90;99.90
17918;DHT22;9084;50.956;3.106;2022-09-09T03:24:32;15.90;99.90
17918;DHT22;9084;50.956;3.106;2022-09-09T03:26:58;15.90;99.90
17918;DHT22;9084;50.956;3.106;2022-09-09T03:29:26;15.90;99.90
17918;DHT22;9084;50.956;3.106;2022-09-09T03:31:52;15.90;99.90
17918;DHT22;9084;50.956;3.106;2022-09-09T03:34:20;15.90;99.90
17918;DHT22;9084;50.956;3.106;2022-09-09T03:36:46;15.90;99.90
17918;DHT22;9084;50.956;3.106;2022-09-09T03:39:14;15.90;99.90
17918;DHT22;9084;50.956;3.106;2022-09-09T03:41:40;15.90;99.90
17918;DHT22;9084;50.956;3.106;2022-09-09T03:44:08;15.90;99.90
17918;DHT22;9084;50.956;3.106;2022-09-09T03:46:34;15.90;99.90
17918;DHT22;9084;50.956;3.106;2022-09-09T03:49:00;15.90;99.90
17918;DHT22;9084;50.956;3.106;2022-09-09T03:51:26;15.90;99.90
17918;DHT22;9084;50.956;3.106;2022-09-09T03:53:52;15.90;99.90
17918;DHT22;9084;50.956;3.106;2022-09-09T03:56:22;15.80;99.90
17918;DHT22;9084;50.956;3.106;2022-09-09T03:58:47;15.90;99.90
17918;DHT22;9084;50.956;3.106;2022-09-09T04:01:14;15.90;99.90
17918;DHT22;9084;50.956;3.106;2022-09-09T04:03:41;15.90;99.90
17918;DHT22;9084;50.956;3.106;2022-09-09T04:06:08;15.90;99.90
17918;DHT22;9084;50.956;3.106;2022-09-09T04:08:36;15.90;99.90
17918;DHT22;9084;50.956;3.106;2022-09-09T04:11:05;15.90;99.90
17918;DHT22;9084;50.956;3.106;2022-09-09T04:13:34;15.90;99.90
17918;DHT22;9084;50.956;3.106;2022-09-09T04:16:02;15.90;99.90
17918;DHT22;9084;50.956;3.106;2022-09-09T04:18:31;15.90;99.90
17918;DHT22;9084;50.956;3.106;2022-09-09T04:20:58;15.90;99.90
17918;DHT22;9084;50.956;3.106;2022-09-09T04:23:28;15.80;99.90
17918;DHT22;9084;50.956;3.106;2022-09-09T04:25:58;15.70;99.90
17918;DHT22;9084;50.956;3.106;2022-09-09T04:28:29;15.70;99.90
17918;DHT22;9084;50.956;3.106;2022-09-09T04:30:56;15.70;99.90
17918;DHT22;9084;50.956;3.106;2022-09-09T04:33:24;15.70;99.90
17918;DHT22;9084;50.956;3.106;2022-09-09T04:35:52;15.60;99.90
17918;DHT22;9084;50.956;3.106;2022-09-09T04:38:19;15.60;99.90
17918;DHT22;9084;50.956;3.106;2022-09-09T04:40:50;15.60;99.90
17918;DHT22;9084;50.956;3.106;2022-09-09T04:43:16;15.60;99.90
17918;DHT22;9084;50.956;3.106;2022-09-09T04:45:47;15.60;99.90
17918;DHT22;9084;50.956;3.106;2022-09-09T04:48:13;15.60;99.90
17918;DHT22;9084;50.956;3.106;2022-09-09T04:50:39;15.60;99.90
17918;DHT22;9084;50.956;3.106;2022-09-09T04:53:09;15.60;99.90
17918;DHT22;9084;50.956;3.106;2022-09-09T04:55:37;15.50;99.90
17918;DHT22;9084;50.956;3.106;2022-09-09T04:58:07;15.50;99.90
17918;DHT22;9084;50.956;3.106;2022-09-09T05:00:35;15.50;99.90
17918;DHT22;9084;50.956;3.106;2022-09-09T05:03:04;15.50;99.90
17918;DHT22;9084;50.956;3.106;2022-09-09T05:05:31;15.50;99.90
17918;DHT22;9084;50.956;3.106;2022-09-09T05:08:07;15.50;99.90
17918;DHT22;9084;50.956;3.106;2022-09-09T05:10:34;15.50;99.90
17918;DHT22;9084;50.956;3.106;2022-09-09T05:13:06;15.50;99.90
17918;DHT22;9084;50.956;3.106;2022-09-09T05:15:32;15.50;99.90
17918;DHT22;9084;50.956;3.106;2022-09-09T05:18:01;15.50;99.90
17918;DHT22;9084;50.956;3.106;2022-09-09T05:20:28;15.40;99.90
17918;DHT22;9084;50.956;3.106;2022-09-09T05:22:55;15.50;99.90
17918;DHT22;9084;50.956;3.106;2022-09-09T05:25:22;15.40;99.90
17918;DHT22;9084;50.956;3.106;2022-09-09T05:27:55;15.50;99.90
17918;DHT22;9084;50.956;3.106;2022-09-09T05:30:22;15.50;99.90
17918;DHT22;9084;50.956;3.106;2022-09-09T05:32:58;15.50;99.90
17918;DHT22;9084;50.956;3.106;2022-09-09T05:35:24;15.50;99.90
17918;DHT22;9084;50.956;3.106;2022-09-09T05:37:50;15.50;99.90
17918;DHT22;9084;50.956;3.106;2022-09-09T05:40:15;15.50;99.90
17918;DHT22;9084;50.956;3.106;2022-09-09T05:42:41;15.50;99.90
17918;DHT22;9084;50.956;3.106;2022-09-09T05:45:08;15.60;99.90
17918;DHT22;9084;50.956;3.106;2022-09-09T05:47:35;15.50;99.90
17918;DHT22;9084;50.956;3.106;2022-09-09T05:50:05;15.60;99.90
17918;DHT22;9084;50.956;3.106;2022-09-09T05:52:31;15.60;99.90
17918;DHT22;9084;50.956;3.106;2022-09-09T05:54:59;15.50;99.90
17918;DHT22;9084;50.956;3.106;2022-09-09T05:57:27;15.60;99.90
17918;DHT22;9084;50.956;3.106;2022-09-09T05:59:53;15.60;99.90
17918;DHT22;9084;50.956;3.106;2022-09-09T06:02:21;15.60;99.90
17918;DHT22;9084;50.956;3.106;2022-09-09T06:04:47;15.60;99.90
17918;DHT22;9084;50.956;3.106;2022-09-09T06:07:12;15.70;99.90
17918;DHT22;9084;50.956;3.106;2022-09-09T06:09:39;15.70;99.90
17918;DHT22;9084;50.956;3.106;2022-09-09T06:12:06;15.70;99.90
17918;DHT22;9084;50.956;3.106;2022-09-09T06:14:32;15.70;99.90
17918;DHT22;9084;50.956;3.106;2022-09-09T06:17:00;15.70;99.90
17918;DHT22;9084;50.956;3.106;2022-09-09T06:19:30;15.70;99.90
17918;DHT22;9084;50.956;3.106;2022-09-09T06:21:56;15.70;99.90
17918;DHT22;9084;50.956;3.106;2022-09-09T06:24:21;15.70;99.90
17918;DHT22;9084;50.956;3.106;2022-09-09T06:26:49;15.70;99.90
17918;DHT22;9084;50.956;3.106;2022-09-09T06:29:15;15.60;99.90
17918;DHT22;9084;50.956;3.106;2022-09-09T06:31:41;15.70;99.90
17918;DHT22;9084;50.956;3.106;2022-09-09T06:34:08;15.60;99.90
17918;DHT22;9084;50.956;3.106;2022-09-09T06:36:36;15.60;99.90
17918;DHT22;9084;50.956;3.106;2022-09-09T06:39:03;15.50;99.90
17918;DHT22;9084;50.956;3.106;2022-09-09T06:41:30;15.50;99.90
17918;DHT22;9084;50.956;3.106;2022-09-09T06:43:57;15.50;99.90
17918;DHT22;9084;50.956;3.106;2022-09-09T06:46:30;15.50;99.90
17918;DHT22;9084;50.956;3.106;2022-09-09T06:48:58;15.50;99.90
17918;DHT22;9084;50.956;3.106;2022-09-09T06:51:33;15.50;99.90
17918;DHT22;9084;50.956;3.106;2022-09-09T06:54:01;15.50;99.90
17918;DHT22;9084;50.956;3.106;2022-09-09T06:56:41;15.50;99.90
17918;DHT22;9084;50.956;3.106;2022-09-09T06:59:09;15.50;99.90
17918;DHT22;9084;50.956;3.106;2022-09-09T07:01:40;15.40;99.90
17918;DHT22;9084;50.956;3.106;2022-09-09T07:04:07;15.50;99.90
17918;DHT22;9084;50.956;3.106;2022-09-09T07:06:38;15.50;99.90
17918;DHT22;9084;50.956;3.106;2022-09-09T07:09:06;15.50;99.90
17918;DHT22;9084;50.956;3.106;2022-09-09T07:11:39;15.50;99.90
17918;DHT22;9084;50.956;3.106;2022-09-09T07:14:07;15.50;99.90
17918;DHT22;9084;50.956;3.106;2022-09-09T07:16:33;15.50;99.90
17918;DHT22;9084;50.956;3.106;2022-09-09T07:19:03;15.50;99.90
17918;DHT22;9084;50.956;3.106;2022-09-09T07:21:30;15.50;99.90
17918;DHT22;9084;50.956;3.106;2022-09-09T07:23:57;15.50;99.90
17918;DHT22;9084;50.956;3.106;2022-09-09T07:26:26;15.60;99.90
17918;DHT22;9084;50.956;3.106;2022-09-09T07:28:53;15.50;99.90
17918;DHT22;9084;50.956;3.106;2022-09-09T07:33:52;15.60;99.90
17918;DHT22;9084;50.956;3.106;2022-09-09T07:36:22;15.50;99.90
17918;DHT22;9084;50.956;3.106;2022-09-09T07:39:00;15.60;99.90
17918;DHT22;9084;50.956;3.106;2022-09-09T07:41:29;15.60;99.90
17918;DHT22;9084;50.956;3.106;2022-09-09T07:43:56;15.70;99.90
17918;DHT22;9084;50.956;3.106;2022-09-09T07:46:24;15.70;99.90
17918;DHT22;9084;50.956;3.106;2022-09-09T07:48:53;15.80;99.90
17918;DHT22;9084;50.956;3.106;2022-09-09T07:51:23;15.80;99.90
17918;DHT22;9084;50.956;3.106;2022-09-09T07:53:55;15.80;99.90
17918;DHT22;9084;50.956;3.106;2022-09-09T07:56:23;15.80;99.90
17918;DHT22;9084;50.956;3.106;2022-09-09T07:58:50;15.90;99.90
17918;DHT22;9084;50.956;3.106;2022-09-09T08:03:59;16.00;99.90
17918;DHT22;9084;50.956;3.106;2022-09-09T08:06:27;16.10;99.90
17918;DHT22;9084;50.956;3.106;2022-09-09T08:08:55;16.10;99.90
17918;DHT22;9084;50.956;3.106;2022-09-09T08:11:25;16.20;99.90
17918;DHT22;9084;50.956;3.106;2022-09-09T08:13:52;16.20;99.90
17918;DHT22;9084;50.956;3.106;2022-09-09T08:16:23;16.20;99.90
17918;DHT22;9084;50.956;3.106;2022-09-09T08:18:50;16.20;99.90
17918;DHT22;9084;50.956;3.106;2022-09-09T08:21:27;16.30;99.90
17918;DHT22;9084;50.956;3.106;2022-09-09T08:23:55;16.40;99.90
17918;DHT22;9084;50.956;3.106;2022-09-09T08:26:23;16.60;99.90
17918;DHT22;9084;50.956;3.106;2022-09-09T08:28:51;16.70;99.90
17918;DHT22;9084;50.956;3.106;2022-09-09T08:33:50;16.90;99.90
17918;DHT22;9084;50.956;3.106;2022-09-09T08:36:22;17.00;99.90
17918;DHT22;9084;50.956;3.106;2022-09-09T08:38:50;17.10;99.90
17918;DHT22;9084;50.956;3.106;2022-09-09T08:43:49;17.30;99.90
17918;DHT22;9084;50.956;3.106;2022-09-09T08:52:59;17.80;99.90
17918;DHT22;9084;50.956;3.106;2022-09-09T08:57:54;18.20;99.90
17918;DHT22;9084;50.956;3.106;2022-09-09T09:00:25;18.20;99.90
17918;DHT22;9084;50.956;3.106;2022-09-09T09:03:09;18.20;99.90
17918;DHT22;9084;50.956;3.106;2022-09-09T09:08:47;18.10;99.90
17918;DHT22;9084;50.956;3.106;2022-09-09T09:11:18;17.90;99.90
17918;DHT22;9084;50.956;3.106;2022-09-09T09:14:07;17.90;99.90
17918;DHT22;9084;50.956;3.106;2022-09-09T09:19:13;17.70;99.90
17918;DHT22;9084;50.956;3.106;2022-09-09T09:21:43;17.60;99.90
17918;DHT22;9084;50.956;3.106;2022-09-09T09:24:23;17.60;99.90
17918;DHT22;9084;50.956;3.106;2022-09-09T09:26:55;17.70;99.90
17918;DHT22;9084;50.956;3.106;2022-09-09T09:29:24;17.80;99.90
17918;DHT22;9084;50.956;3.106;2022-09-09T09:31:56;17.80;99.90
17918;DHT22;9084;50.956;3.106;2022-09-09T09:34:24;17.90;99.90
17918;DHT22;9084;50.956;3.106;2022-09-09T09:37:00;17.90;99.90
17918;DHT22;9084;50.956;3.106;2022-09-09T09:39:33;18.10;99.90
17918;DHT22;9084;50.956;3.106;2022-09-09T09:42:11;18.20;99.90
17918;DHT22;9084;50.956;3.106;2022-09-09T09:44:39;18.20;99.90
17918;DHT22;9084;50.956;3.106;2022-09-09T09:47:13;18.20;99.90
17918;DHT22;9084;50.956;3.106;2022-09-09T09:50:18;18.10;99.90
17918;DHT22;9084;50.956;3.106;2022-09-09T09:52:56;18.20;99.90
17918;DHT22;9084;50.956;3.106;2022-09-09T09:55:23;18.20;99.90
17918;DHT22;9084;50.956;3.106;2022-09-09T09:57:49;18.20;99.90
17918;DHT22;9084;50.956;3.106;2022-09-09T10:00:19;18.20;99.90
17918;DHT22;9084;50.956;3.106;2022-09-09T10:02:46;18.10;99.90
17918;DHT22;9084;50.956;3.106;2022-09-09T10:05:19;18.10;99.90
17918;DHT22;9084;50.956;3.106;2022-09-09T10:08:13;18.10;99.90
17918;DHT22;9084;50.956;3.106;2022-09-09T10:14:20;18.30;99.90
17918;DHT22;9084;50.956;3.106;2022-09-09T10:19:37;18.40;99.90
17918;DHT22;9084;50.956;3.106;2022-09-09T10:22:27;18.40;99.90
17918;DHT22;9084;50.956;3.106;2022-09-09T10:30:47;18.80;99.90
17918;DHT22;9084;50.956;3.106;2022-09-09T10:33:32;18.90;99.90
17918;DHT22;9084;50.956;3.106;2022-09-09T10:36:05;19.00;99.90
17918;DHT22;9084;50.956;3.106;2022-09-09T10:38:45;19.00;99.90
17918;DHT22;9084;50.956;3.106;2022-09-09T10:49:16;19.00;99.90
17918;DHT22;9084;50.956;3.106;2022-09-09T10:52:01;19.10;99.90
17918;DHT22;9084;50.956;3.106;2022-09-09T10:59:53;19.40;99.90
17918;DHT22;9084;50.956;3.106;2022-09-09T11:05:05;19.40;99.90
17918;DHT22;9084;50.956;3.106;2022-09-09T11:07:44;19.40;99.90
17918;DHT22;9084;50.956;3.106;2022-09-09T11:13:05;19.30;99.90
17918;DHT22;9084;50.956;3.106;2022-09-09T11:15:42;19.20;99.90
17918;DHT22;9084;50.956;3.106;2022-09-09T11:18:15;19.20;99.90
17918;DHT22;9084;50.956;3.106;2022-09-09T11:20:47;19.40;99.90
17918;DHT22;9084;50.956;3.106;2022-09-09T11:23:25;19.70;99.90
17918;DHT22;9084;50.956;3.106;2022-09-09T11:25:58;20.10;99.90
17918;DHT22;9084;50.956;3.106;2022-09-09T11:31:32;20.70;83.50
17918;DHT22;9084;50.956;3.106;2022-09-09T11:34:21;20.90;67.10
17918;DHT22;9084;50.956;3.106;2022-09-09T11:37:14;20.80;62.40
17918;DHT22;9084;50.956;3.106;2022-09-09T11:40:08;20.40;75.70
17918;DHT22;9084;50.956;3.106;2022-09-09T11:42:36;20.10;82.40
17918;DHT22;9084;50.956;3.106;2022-09-09T11:45:20;19.70;97.60
17918;DHT22;9084;50.956;3.106;2022-09-09T11:47:54;19.50;99.90
17918;DHT22;9084;50.956;3.106;2022-09-09T11:52:50;19.40;99.90
17918;DHT22;9084;50.956;3.106;2022-09-09T11:55:35;19.30;99.90
17918;DHT22;9084;50.956;3.106;2022-09-09T11:58:15;19.20;99.90
17918;DHT22;9084;50.956;3.106;2022-09-09T12:00:47;19.00;99.90
17918;DHT22;9084;50.956;3.106;2022-09-09T12:03:48;18.70;99.90
17918;DHT22;9084;50.956;3.106;2022-09-09T12:06:25;18.30;99.90
17918;DHT22;9084;50.956;3.106;2022-09-09T12:08:55;18.00;99.90
17918;DHT22;9084;50.956;3.106;2022-09-09T12:11:29;17.80;99.90
17918;DHT22;9084;50.956;3.106;2022-09-09T12:13:58;17.60;99.90
17918;DHT22;9084;50.956;3.106;2022-09-09T12:16:34;17.50;99.90
17918;DHT22;9084;50.956;3.106;2022-09-09T12:19:15;17.40;99.90
17918;DHT22;9084;50.956;3.106;2022-09-09T12:21:58;17.40;99.90
17918;DHT22;9084;50.956;3.106;2022-09-09T12:24:37;17.50;99.90
17918;DHT22;9084;50.956;3.106;2022-09-09T12:27:23;17.70;99.90
17918;DHT22;9084;50.956;3.106;2022-09-09T12:30:03;18.00;99.90
17918;DHT22;9084;50.956;3.106;2022-09-09T12:32:29;18.30;99.90
17918;DHT22;9084;50.956;3.106;2022-09-09T12:37:47;18.80;99.90
17918;DHT22;9084;50.956;3.106;2022-09-09T12:40:34;19.00;99.90
17918;DHT22;9084;50.956;3.106;2022-09-09T12:43:02;19.20;99.90
17918;DHT22;9084;50.956;3.106;2022-09-09T12:45:32;19.40;99.90
17918;DHT22;9084;50.956;3.106;2022-09-09T12:48:01;19.50;99.90
17918;DHT22;9084;50.956;3.106;2022-09-09T12:50:32;19.40;99.90
17918;DHT22;9084;50.956;3.106;2022-09-09T12:53:33;19.40;99.90
17918;DHT22;9084;50.956;3.106;2022-09-09T12:56:06;19.40;99.90
17918;DHT22;9084;50.956;3.106;2022-09-09T12:58:33;19.40;99.90
17918;DHT22;9084;50.956;3.106;2022-09-09T13:01:00;19.50;99.90
17918;DHT22;9084;50.956;3.106;2022-09-09T13:03:28;19.60;99.90
17918;DHT22;9084;50.956;3.106;2022-09-09T13:06:10;19.80;99.90
17918;DHT22;9084;50.956;3.106;2022-09-09T13:08:37;19.80;99.90
17918;DHT22;9084;50.956;3.106;2022-09-09T13:11:10;19.70;99.90
17918;DHT22;9084;50.956;3.106;2022-09-09T13:13:40;19.70;99.90
17918;DHT22;9084;50.956;3.106;2022-09-09T13:16:27;19.70;99.90
17918;DHT22;9084;50.956;3.106;2022-09-09T13:19:13;19.80;99.90
17918;DHT22;9084;50.956;3.106;2022-09-09T13:21:40;19.80;99.90
17918;DHT22;9084;50.956;3.106;2022-09-09T13:24:30;19.70;99.90
17918;DHT22;9084;50.956;3.106;2022-09-09T13:27:02;19.80;99.90
17918;DHT22;9084;50.956;3.106;2022-09-09T13:29:30;19.80;99.90
17918;DHT22;9084;50.956;3.106;2022-09-09T13:32:20;19.80;99.90
17918;DHT22;9084;50.956;3.106;2022-09-09T13:34:57;20.00;99.90
17918;DHT22;9084;50.956;3.106;2022-09-09T13:37:36;20.30;99.90
17918;DHT22;9084;50.956;3.106;2022-09-09T13:40:15;20.50;99.90
17918;DHT22;9084;50.956;3.106;2022-09-09T13:42:42;20.40;98.20
17918;DHT22;9084;50.956;3.106;2022-09-09T13:45:21;20.40;98.60
17918;DHT22;9084;50.956;3.106;2022-09-09T13:47:48;20.20;90.70
17918;DHT22;9084;50.956;3.106;2022-09-09T13:50:28;20.10;89.90
17918;DHT22;9084;50.956;3.106;2022-09-09T13:52:56;19.90;94.20
17918;DHT22;9084;50.956;3.106;2022-09-09T13:55:27;19.90;95.10
17918;DHT22;9084;50.956;3.106;2022-09-09T13:57:56;20.00;85.40
17918;DHT22;9084;50.956;3.106;2022-09-09T14:00:25;20.00;96.50
17918;DHT22;9084;50.956;3.106;2022-09-09T14:02:52;20.00;94.80
17918;DHT22;9084;50.956;3.106;2022-09-09T14:05:20;20.30;74.90
17918;DHT22;9084;50.956;3.106;2022-09-09T14:07:48;20.30;50.40
17918;DHT22;9084;50.956;3.106;2022-09-09T14:10:17;20.20;57.80
17918;DHT22;9084;50.956;3.106;2022-09-09T14:12:43;20.20;54.50
17918;DHT22;9084;50.956;3.106;2022-09-09T14:15:14;20.10;52.30
17918;DHT22;9084;50.956;3.106;2022-09-09T14:17:42;20.10;31.50
17918;DHT22;9084;50.956;3.106;2022-09-09T14:20:08;20.10;41.70
17918;DHT22;9084;50.956;3.106;2022-09-09T14:22:38;20.10;35.50
17918;DHT22;9084;50.956;3.106;2022-09-09T14:25:08;20.20;31.60
17918;DHT22;9084;50.956;3.106;2022-09-09T14:27:34;20.30;45.80
17918;DHT22;9084;50.956;3.106;2022-09-09T14:29:59;20.50;34.20
17918;DHT22;9084;50.956;3.106;2022-09-09T14:32:28;20.70;29.20
17918;DHT22;9084;50.956;3.106;2022-09-09T14:34:55;20.80;22.80
17918;DHT22;9084;50.956;3.106;2022-09-09T14:37:21;20.70;18.00
17918;DHT22;9084;50.956;3.106;2022-09-09T14:39:49;20.60;23.90
17918;DHT22;9084;50.956;3.106;2022-09-09T14:42:19;20.60;23.20
17918;DHT22;9084;50.956;3.106;2022-09-09T14:44:50;20.60;21.80
17918;DHT22;9084;50.956;3.106;2022-09-09T14:47:15;20.50;22.40
17918;DHT22;9084;50.956;3.106;2022-09-09T14:49:41;20.50;24.10
17918;DHT22;9084;50.956;3.106;2022-09-09T14:52:07;20.50;13.90
17918;DHT22;9084;50.956;3.106;2022-09-09T14:54:37;20.50;21.30
17918;DHT22;9084;50.956;3.106;2022-09-09T14:57:02;20.50;20.90
17918;DHT22;9084;50.956;3.106;2022-09-09T14:59:28;20.40;7.60
17918;DHT22;9084;50.956;3.106;2022-09-09T15:01:59;20.50;20.90
17918;DHT22;9084;50.956;3.106;2022-09-09T15:04:29;20.50;25.40
17918;DHT22;9084;50.956;3.106;2022-09-09T15:06:55;20.50;26.10
17918;DHT22;9084;50.956;3.106;2022-09-09T15:09:21;20.50;31.10
17918;DHT22;9084;50.956;3.106;2022-09-09T15:11:48;20.30;36.40
17918;DHT22;9084;50.956;3.106;2022-09-09T15:14:14;20.10;41.60
17918;DHT22;9084;50.956;3.106;2022-09-09T15:16:43;19.90;69.80
17918;DHT22;9084;50.956;3.106;2022-09-09T15:19:08;19.60;99.90
17918;DHT22;9084;50.956;3.106;2022-09-09T15:21:36;19.50;99.90
17918;DHT22;9084;50.956;3.106;2022-09-09T15:24:03;19.40;99.90
17918;DHT22;9084;50.956;3.106;2022-09-09T15:26:29;19.40;99.90
17918;DHT22;9084;50.956;3.106;2022-09-09T15:28:56;19.50;99.90
17918;DHT22;9084;50.956;3.106;2022-09-09T15:31:29;19.60;99.90
17918;DHT22;9084;50.956;3.106;2022-09-09T15:34:06;19.70;99.90
17918;DHT22;9084;50.956;3.106;2022-09-09T15:36:39;19.80;90.10
17918;DHT22;9084;50.956;3.106;2022-09-09T15:39:07;19.90;91.80
17918;DHT22;9084;50.956;3.106;2022-09-09T15:41:35;20.00;87.80
17918;DHT22;9084;50.956;3.106;2022-09-09T15:44:01;20.20;73.10
17918;DHT22;9084;50.956;3.106;2022-09-09T15:46:34;20.50;66.40
17918;DHT22;9084;50.956;3.106;2022-09-09T15:49:20;20.70;66.30
17918;DHT22;9084;50.956;3.106;2022-09-09T15:51:57;21.00;52.00
17918;DHT22;9084;50.956;3.106;2022-09-09T15:54:25;21.00;32.70
17918;DHT22;9084;50.956;3.106;2022-09-09T15:56:56;21.10;34.00
17918;DHT22;9084;50.956;3.106;2022-09-09T15:59:27;21.10;23.80
17918;DHT22;9084;50.956;3.106;2022-09-09T16:01:56;21.00;13.80
17918;DHT22;9084;50.956;3.106;2022-09-09T16:04:23;20.80;13.20
17918;DHT22;9084;50.956;3.106;2022-09-09T16:06:56;20.80;19.70
17918;DHT22;9084;50.956;3.106;2022-09-09T16:09:24;20.70;23.00
17918;DHT22;9084;50.956;3.106;2022-09-09T16:11:55;20.70;25.20
17918;DHT22;9084;50.956;3.106;2022-09-09T16:14:23;20.50;25.00
17918;DHT22;9084;50.956;3.106;2022-09-09T16:16:50;20.40;23.40
17918;DHT22;9084;50.956;3.106;2022-09-09T16:19:16;20.20;25.90
17918;DHT22;9084;50.956;3.106;2022-09-09T16:21:45;20.10;23.70
17918;DHT22;9084;50.956;3.106;2022-09-09T16:24:15;20.20;28.70
17918;DHT22;9084;50.956;3.106;2022-09-09T16:26:44;20.20;28.10
17918;DHT22;9084;50.956;3.106;2022-09-09T16:29:11;20.30;27.10
17918;DHT22;9084;50.956;3.106;2022-09-09T16:31:39;20.30;22.70
17918;DHT22;9084;50.956;3.106;2022-09-09T16:34:06;20.30;26.00
17918;DHT22;9084;50.956;3.106;2022-09-09T16:36:38;20.30;33.00
17918;DHT22;9084;50.956;3.106;2022-09-09T16:39:15;20.30;29.20
17918;DHT22;9084;50.956;3.106;2022-09-09T16:41:42;20.30;27.80
17918;DHT22;9084;50.956;3.106;2022-09-09T16:44:12;20.30;26.30
17918;DHT22;9084;50.956;3.106;2022-09-09T16:46:42;20.30;21.10
17918;DHT22;9084;50.956;3.106;2022-09-09T16:49:12;20.20;23.30
17918;DHT22;9084;50.956;3.106;2022-09-09T16:51:48;20.10;26.20
17918;DHT22;9084;50.956;3.106;2022-09-09T16:54:16;20.00;29.60
17918;DHT22;9084;50.956;3.106;2022-09-09T16:56:46;19.90;31.10
17918;DHT22;9084;50.956;3.106;2022-09-09T16:59:20;19.80;27.40
17918;DHT22;9084;50.956;3.106;2022-09-09T17:01:50;19.70;29.50
17918;DHT22;9084;50.956;3.106;2022-09-09T17:04:19;19.70;35.90
17918;DHT22;9084;50.956;3.106;2022-09-09T17:06:51;19.70;33.10
17918;DHT22;9084;50.956;3.106;2022-09-09T17:09:18;19.70;36.00
17918;DHT22;9084;50.956;3.106;2022-09-09T17:11:46;19.60;31.80
17918;DHT22;9084;50.956;3.106;2022-09-09T17:14:16;19.60;32.90
17918;DHT22;9084;50.956;3.106;2022-09-09T17:16:47;19.60;34.10
17918;DHT22;9084;50.956;3.106;2022-09-09T17:19:14;19.60;44.00
17918;DHT22;9084;50.956;3.106;2022-09-09T17:21:42;19.40;47.60
17918;DHT22;9084;50.956;3.106;2022-09-09T17:24:12;19.30;56.10
17918;DHT22;9084;50.956;3.106;2022-09-09T17:26:38;19.20;64.60
17918;DHT22;9084;50.956;3.106;2022-09-09T17:29:07;19.10;69.70
17918;DHT22;9084;50.956;3.106;2022-09-09T17:31:33;19.00;79.30
17918;DHT22;9084;50.956;3.106;2022-09-09T17:33:59;19.00;81.30
17918;DHT22;9084;50.956;3.106;2022-09-09T17:36:31;18.80;82.90
17918;DHT22;9084;50.956;3.106;2022-09-09T17:38:58;18.80;81.90
17918;DHT22;9084;50.956;3.106;2022-09-09T17:41:27;18.70;78.80
17918;DHT22;9084;50.956;3.106;2022-09-09T17:43:53;18.70;82.00
17918;DHT22;9084;50.956;3.106;2022-09-09T17:46:35;18.60;87.60
17918;DHT22;9084;50.956;3.106;2022-09-09T17:49:04;18.50;91.10
17918;DHT22;9084;50.956;3.106;2022-09-09T17:51:34;18.50;92.70
17918;DHT22;9084;50.956;3.106;2022-09-09T17:54:06;18.40;92.50